Terminal Aerodrome Forecast
Issued by NWS Quad Cities IA IL

Home | Current Version | Previous Version | Text Only | Print | Product List | Glossary On
Versions: 1 2 3 4 5 6 7 8 9 10 11 12 13 14 15 16
758
FTUS43 KDVN 062332
TAFMLI
TAF
KMLI 062332Z 0700/0724 24006KT P6SM SCT200
     FM070600 24010G17KT P6SM BKN200
     FM071900 27014G22KT P6SM BKN040=

USA.gov is the U.S. government's official web portal to all federal, state and local government web resources and services.